Disclaimer

Please do not use the information listed here in-flight or in-navigation, as they are not provided to us by the airports but are provided by volunteers, so they might be outdated.

Search


Regions


Airport information page

Radio informations:
Aerodrome flight information system (AFIS) - 118.95 MHz

Airport informations:
Latitude: 67° 42' 03.68" N
Longitude: 024° 50' 48.66" E
Elevation: 644 feet - 196 meters
Operating hours: N/A
Operating agency: Civil government, landing fees and diplomatic clearance may be required
Timezone: UTC+2(+3DT) - Last Sunday in March to last Sunday in October
Fuel: Jet A1, without icing nhibitor.

100/130 MIL Spec, low lead, aviation gasoline (BLUE)

Runway information:
16/34 - 8202 x 148 feet< - >2500 x 45 meters

Recent METARs:
EFKT 192050Z AUTO VRB02KT CAVOK M06/M07 Q1021
EFKT 192120Z AUTO 23008KT CAVOK M06/M07 Q1021
EFKT 192150Z AUTO VRB02KT CAVOK M05/M07 Q1021

Airport on the map: